Flight Track Log - Related Links

Times and Time Zones

All times are in EDT time to prevent confusion due to time zone crossing. See the TAM3736 flight status page for this flight to view local times or setup timezone preferences in your user account.

Time Position Orientation Groundspeed Altitude Reporting Facility
EDT Latitude Longitude Course Direction KTS MPH feet Rate Location/Type
Sun 09:28:00 PM -22.1680 -48.1029 317° Northwest  Level Estimated
Sun 09:29:00 PM -22.1069 -48.1625 318° Northwest  Level Estimated
Sun 09:30:00 PM -22.0458 -48.2221 318° Northwest  Level Estimated
Sun 09:31:00 PM -21.9847 -48.2817 318° Northwest  Level Estimated
Sun 09:32:00 PM -21.9236 -48.3411 318° Northwest  Level Estimated
Sun 09:33:00 PM -21.8625 -48.4006 318° Northwest  Level Estimated
Sun 09:34:00 PM -21.8013 -48.4600 318° Northwest  Level Estimated
Sun 09:35:00 PM -21.7401 -48.5193 318° Northwest  Level Estimated
Sun 09:36:00 PM -21.6789 -48.5786 318° Northwest  Level Estimated
Sun 09:37:00 PM -21.6177 -48.6378 318° Northwest  Level Estimated
Sun 09:38:00 PM -21.5564 -48.6970 318° Northwest  Level Estimated
Sun 09:39:00 PM -21.4951 -48.7562 318° Northwest  Level Estimated
Sun 09:40:00 PM -21.4338 -48.8153 318° Northwest  Level Estimated
Sun 09:41:00 PM -21.3725 -48.8743 318° Northwest  Level Estimated
Sun 09:42:00 PM -21.3112 -48.9333 318° Northwest  Level Estimated
Sun 09:43:00 PM -21.2498 -48.9922 318° Northwest  Level Estimated
Sun 09:44:00 PM -21.1885 -49.0511 318° Northwest  Level Estimated
Sun 09:45:00 PM -21.1271 -49.1100 318° Northwest  Level Estimated
Sun 09:46:00 PM -21.0656 -49.1688 318° Northwest  Level Estimated
Sun 09:47:00 PM -21.0042 -49.2275 318° Northwest  Level Estimated
Sun 09:48:00 PM -20.9428 -49.2862 318° Northwest  Level Estimated
Sun 09:49:00 PM -20.8813 -49.3448 318° Northwest  Level Estimated
Sun 09:50:00 PM -20.8198 -49.4035 318° Northwest  Level Estimated
Sun 09:51:00 PM -20.8166 -49.4065 318° Northwest  Level Estimated
Sun 09:52:00 PM -20.8166 -49.4065 343° North  Level Estimated
Sun 09:53:00 PM -20.8166 -49.4065 343° North  Level Estimated
Sun 09:54:00 PM -20.8166 -49.4065 343° North  Level Estimated
Sun 09:55:00 PM -20.8166 -49.4065 343° North  Level Estimated
Sun 09:56:00 PM -20.8166 -49.4065 343° North  Level Estimated
Sun 09:57:00 PM -20.8166 -49.4065 343° North  Level Estimated
Sun 09:58:00 PM -20.8166 -49.4065 343° North  Level Estimated
Sun 09:59:00 PM -20.8166 -49.4065 343° North  Level Estimated
Sun 10:00:00 PM -20.8166 -49.4065 343° North  Level Estimated
Sun 10:01:00 PM -20.8166 -49.4065 343° North  Level Estimated
Sun 10:02:00 PM -20.8166 -49.4065 343° North  Level Estimated
Sun 10:03:00 PM -20.8166 -49.4065 343° North  Level Estimated
Sun 10:04:00 PM -20.8166 -49.4065 343° North  Level Estimated
Sun 10:05:00 PM -20.8166 -49.4065 343° North  Level Estimated
Sun 10:06:00 PM -20.8166 -49.4065 343° North  Level Estimated

Login

Don't have an account? Register now (free) for customized features, flight alerts, and more!